createdAt,value
2023-05-22T00:01:22.690Z,20.65
2023-05-22T00:06:26.082Z,21.20
2023-05-22T00:11:28.973Z,23.17
2023-05-22T00:16:33.159Z,24.92
2023-05-22T00:21:37.597Z,24.55
2023-05-22T00:26:40.515Z,25.25
2023-05-22T00:31:44.748Z,26.50
2023-05-22T00:36:47.584Z,24.95
2023-05-22T00:41:50.662Z,25.73
2023-05-22T00:46:54.988Z,24.90
2023-05-22T00:51:58.258Z,24.00
2023-05-22T00:57:02.003Z,25.05
2023-05-22T01:02:06.835Z,24.98
2023-05-22T01:07:09.882Z,25.52
2023-05-22T01:12:24.372Z,25.08
2023-05-22T01:17:40.682Z,24.52
2023-05-22T01:23:16.228Z,26.83
2023-05-22T01:28:37.600Z,27.00
2023-05-22T01:33:46.522Z,27.67
2023-05-22T01:38:49.899Z,27.25
2023-05-22T01:43:53.080Z,27.35
2023-05-22T01:48:57.485Z,27.67
2023-05-22T01:54:06.330Z,28.52
2023-05-22T01:59:15.414Z,28.05
2023-05-22T02:04:21.388Z,27.77
2023-05-22T02:09:28.632Z,26.38
2023-05-22T02:14:31.664Z,28.55
2023-05-22T02:19:36.875Z,25.98
2023-05-22T02:24:41.561Z,25.55
2023-05-22T02:29:45.311Z,24.35
2023-05-22T02:34:49.436Z,24.33
2023-05-22T02:39:52.249Z,24.95
2023-05-22T02:44:55.134Z,23.23
2023-05-22T02:49:59.345Z,24.85
2023-05-22T02:55:02.292Z,23.90
2023-05-22T03:00:06.914Z,23.30
2023-05-22T03:05:11.532Z,22.70
2023-05-22T03:10:14.352Z,24.75
2023-05-22T03:15:17.399Z,23.20
2023-05-22T03:20:22.281Z,23.48
2023-05-22T03:25:25.183Z,23.30
2023-05-22T03:30:28.123Z,22.55
2023-05-22T03:35:46.696Z,24.48
2023-05-22T03:40:49.653Z,22.65
2023-05-22T03:45:52.576Z,24.20
2023-05-22T03:50:56.897Z,22.10
2023-05-22T03:55:59.744Z,23.73
2023-05-22T04:01:02.699Z,24.27
2023-05-22T04:06:07.572Z,23.42
2023-05-22T04:11:10.530Z,22.70
2023-05-22T04:16:13.549Z,21.85
2023-05-22T04:21:19.029Z,22.80
2023-05-22T04:26:21.982Z,21.92
2023-05-22T04:31:25.862Z,21.33
2023-05-22T04:36:31.151Z,20.20
2023-05-22T04:41:34.271Z,18.38
2023-05-22T04:46:37.299Z,18.52
2023-05-22T04:51:41.806Z,20.13
2023-05-22T04:56:44.729Z,19.17
2023-05-22T05:01:47.910Z,17.98
2023-05-22T05:06:52.830Z,17.00
2023-05-22T05:11:55.707Z,17.98
2023-05-22T05:16:58.692Z,19.85
2023-05-22T05:22:03.246Z,18.23
2023-05-22T05:27:07.086Z,17.77
2023-05-22T05:32:12.988Z,16.10
2023-05-22T05:37:27.810Z,17.58
2023-05-22T05:42:34.630Z,15.32
2023-05-22T05:47:40.626Z,16.13
2023-05-22T05:52:45.396Z,16.00
2023-05-22T05:57:52.373Z,15.80
2023-05-22T06:03:02.070Z,15.93
2023-05-22T06:08:28.444Z,14.82
2023-05-22T06:13:31.535Z,14.13
2023-05-22T06:18:34.613Z,14.10
2023-05-22T06:23:39.013Z,14.30
2023-05-22T06:28:43.642Z,12.57
2023-05-22T06:33:47.414Z,14.55
2023-05-22T06:38:55.485Z,14.23
2023-05-22T06:44:18.316Z,15.60
2023-05-22T06:49:21.177Z,15.05
2023-05-22T06:54:29.593Z,16.50
2023-05-22T06:59:33.671Z,15.75
2023-05-22T07:04:42.104Z,16.88
2023-05-22T07:09:50.986Z,15.77
2023-05-22T07:14:54.237Z,15.40
2023-05-22T07:19:59.483Z,15.63
2023-05-22T07:25:05.103Z,16.13
2023-05-22T07:30:10.661Z,16.02
2023-05-22T07:35:15.474Z,15.95
2023-05-22T07:40:19.776Z,15.32
2023-05-22T07:45:22.910Z,15.40
2023-05-22T07:50:27.046Z,13.95
2023-05-22T07:55:31.494Z,14.93
2023-05-22T08:00:34.611Z,13.75
2023-05-22T08:05:37.492Z,13.10
2023-05-22T08:10:58.249Z,13.55
2023-05-22T08:16:04.835Z,13.52
2023-05-22T08:21:07.746Z,13.55
2023-05-22T08:26:11.985Z,13.52
2023-05-22T08:31:15.599Z,13.45
2023-05-22T08:36:18.507Z,12.70
2023-05-22T08:41:22.793Z,13.15
2023-05-22T08:46:29.021Z,12.30
2023-05-22T08:51:35.728Z,12.55
2023-05-22T08:56:53.051Z,12.63
2023-05-22T09:01:59.986Z,12.60
2023-05-22T09:07:05.959Z,12.75
2023-05-22T09:12:11.725Z,12.20
2023-05-22T09:17:17.169Z,11.57
2023-05-22T09:22:21.767Z,11.60
2023-05-22T09:27:27.185Z,12.32
2023-05-22T09:32:31.399Z,11.27
2023-05-22T09:37:35.838Z,12.20
2023-05-22T09:42:40.042Z,12.10
2023-05-22T09:47:43.188Z,11.68
2023-05-22T09:52:47.182Z,11.52
2023-05-22T09:57:53.484Z,11.20
2023-05-22T10:03:04.050Z,11.23
2023-05-22T10:08:11.939Z,11.45
2023-05-22T10:13:17.218Z,11.20
2023-05-22T10:18:20.028Z,12.02
2023-05-22T10:23:23.510Z,11.75
2023-05-22T10:28:36.292Z,11.48
2023-05-22T10:33:45.059Z,11.13
2023-05-22T10:39:05.310Z,10.73
2023-05-22T10:44:09.790Z,11.23
2023-05-22T10:49:22.410Z,12.75
2023-05-22T10:54:40.805Z,11.85
2023-05-22T10:59:45.280Z,12.05
2023-05-22T11:04:48.345Z,12.20
2023-05-22T11:10:00.920Z,11.95
2023-05-22T11:15:07.386Z,11.55
2023-05-22T11:20:15.950Z,11.57
2023-05-22T11:25:21.361Z,11.32
2023-05-22T11:30:28.420Z,11.73
2023-05-22T11:35:31.416Z,13.27
2023-05-22T11:40:34.185Z,12.02
2023-05-22T11:45:40.928Z,12.52
2023-05-22T11:50:44.810Z,12.38
2023-05-22T11:55:49.499Z,11.07
2023-05-22T12:00:53.795Z,11.90
2023-05-22T12:05:57.026Z,11.68
2023-05-22T12:10:59.980Z,11.73
2023-05-22T12:16:19.677Z,12.63
2023-05-22T12:21:23.019Z,12.00
2023-05-22T12:26:25.797Z,12.60
2023-05-22T12:31:35.788Z,12.35
2023-05-22T12:36:40.789Z,12.13
2023-05-22T12:41:44.362Z,13.85
2023-05-22T12:46:48.658Z,15.85
2023-05-22T12:51:51.450Z,13.85
2023-05-22T12:56:54.263Z,14.20
2023-05-22T13:02:02.155Z,13.52
2023-05-22T13:07:05.192Z,13.85
2023-05-22T13:12:10.217Z,13.85
2023-05-22T13:17:14.422Z,13.38
2023-05-22T13:22:17.312Z,14.00
2023-05-22T13:27:20.422Z,15.00
2023-05-22T13:32:24.654Z,14.57
2023-05-22T13:37:27.517Z,14.38
2023-05-22T13:42:30.403Z,15.57
2023-05-22T13:47:35.043Z,14.98
2023-05-22T13:52:37.997Z,14.52
2023-05-22T13:57:41.384Z,14.10
2023-05-22T14:02:46.474Z,14.27
2023-05-22T14:07:50.221Z,16.02
2023-05-22T14:12:54.480Z,15.30
2023-05-22T14:17:58.768Z,8.43
2023-05-22T14:23:01.676Z,7.55
2023-05-22T14:28:04.474Z,7.57
2023-05-22T14:33:08.684Z,8.88
2023-05-22T14:38:11.618Z,10.07
2023-05-22T14:43:14.507Z,7.00
2023-05-22T14:48:18.700Z,7.78
2023-05-22T14:53:21.738Z,8.30
2023-05-22T14:58:24.741Z,6.80
2023-05-22T15:03:29.202Z,6.88
2023-05-22T15:08:32.126Z,7.03
2023-05-22T15:13:35.008Z,8.15
2023-05-22T15:18:39.178Z,7.85
2023-05-22T15:23:43.222Z,7.85
2023-05-22T15:28:45.988Z,7.22
2023-05-22T15:33:50.457Z,7.53
2023-05-22T15:38:53.302Z,7.25
2023-05-22T15:43:56.153Z,6.70
2023-05-22T15:49:00.463Z,9.77
2023-05-22T15:54:03.290Z,9.45
2023-05-22T15:59:06.123Z,10.82
2023-05-22T16:04:10.359Z,15.63
2023-05-22T16:09:16.070Z,16.40
2023-05-22T16:14:18.948Z,13.70
2023-05-22T16:19:23.512Z,13.55
2023-05-22T16:24:26.578Z,15.82
2023-05-22T16:29:30.381Z,18.02
2023-05-22T16:34:34.840Z,17.67
2023-05-22T16:39:39.806Z,14.30
2023-05-22T16:44:42.931Z,24.20
2023-05-22T16:49:47.097Z,25.83
2023-05-22T16:54:49.907Z,24.08
2023-05-22T16:59:52.795Z,24.63
2023-05-22T17:04:58.168Z,27.02
2023-05-22T17:10:02.278Z,26.77
2023-05-22T17:15:05.935Z,22.77
2023-05-22T17:20:11.680Z,20.63
2023-05-22T17:25:14.461Z,21.00
2023-05-22T17:30:17.279Z,20.73
2023-05-22T17:35:21.540Z,20.95
2023-05-22T17:40:29.539Z,22.83
2023-05-22T17:45:44.624Z,23.58
2023-05-22T17:50:49.650Z,25.70
2023-05-22T17:55:53.254Z,24.83
2023-05-22T18:00:56.588Z,26.25
2023-05-22T18:06:00.796Z,24.73
2023-05-22T18:11:05.065Z,26.55
2023-05-22T18:16:08.134Z,25.70
2023-05-22T18:21:12.381Z,27.17
2023-05-22T18:26:15.187Z,23.98
2023-05-22T18:31:18.020Z,19.15
2023-05-22T18:36:22.668Z,19.40
2023-05-22T18:41:26.217Z,13.55
2023-05-22T18:46:29.144Z,12.80
2023-05-22T18:51:33.367Z,12.15
2023-05-22T18:56:36.710Z,10.07
2023-05-22T19:01:40.450Z,10.32
2023-05-22T19:06:45.890Z,11.05
2023-05-22T19:11:48.819Z,10.15
2023-05-22T19:16:51.753Z,11.07
2023-05-22T19:21:56.197Z,13.60
2023-05-22T19:26:59.110Z,12.68
2023-05-22T19:32:02.093Z,11.95
2023-05-22T19:37:06.517Z,13.68
2023-05-22T19:42:10.687Z,13.45
2023-05-22T19:47:13.536Z,13.27
2023-05-22T19:52:17.755Z,16.38
2023-05-22T19:57:20.785Z,16.50
2023-05-22T20:02:23.689Z,19.35
2023-05-22T20:07:27.842Z,20.75
2023-05-22T20:12:30.657Z,18.33
2023-05-22T20:17:33.820Z,21.40
2023-05-22T20:22:38.385Z,22.17
2023-05-22T20:27:41.361Z,20.95
2023-05-22T20:32:46.370Z,20.00
2023-05-22T20:37:53.317Z,19.17
2023-05-22T20:42:57.022Z,19.27
2023-05-22T20:48:00.434Z,19.13
2023-05-22T20:53:06.313Z,19.45
2023-05-22T20:58:09.271Z,18.17
2023-05-22T21:03:12.314Z,16.20
2023-05-22T21:08:16.552Z,18.35
2023-05-22T21:13:20.038Z,20.85
2023-05-22T21:18:23.084Z,19.75
2023-05-22T21:23:27.308Z,20.52
2023-05-22T21:28:30.425Z,21.67
2023-05-22T21:33:33.346Z,23.08
2023-05-22T21:38:37.553Z,25.75
2023-05-22T21:43:40.695Z,31.67
2023-05-22T21:48:43.400Z,39.63
2023-05-22T21:53:47.889Z,37.50
2023-05-22T21:58:50.625Z,45.67
2023-05-22T22:03:53.464Z,48.60
2023-05-22T22:08:59.680Z,46.83
2023-05-22T22:14:02.438Z,46.35
2023-05-22T22:19:05.411Z,43.20
2023-05-22T22:24:09.713Z,42.95
2023-05-22T22:29:12.783Z,40.63
2023-05-22T22:34:15.678Z,40.80
2023-05-22T22:39:19.899Z,39.25
2023-05-22T22:44:22.669Z,37.85
2023-05-22T22:49:25.568Z,37.22
2023-05-22T22:54:29.741Z,38.35
2023-05-22T22:59:33.645Z,41.80
2023-05-22T23:04:36.592Z,42.03
2023-05-22T23:09:40.980Z,40.20
2023-05-22T23:14:44.874Z,38.08
2023-05-22T23:19:47.845Z,39.80
2023-05-22T23:24:52.015Z,36.45
2023-05-22T23:29:54.790Z,30.42
2023-05-22T23:34:57.598Z,33.33
2023-05-22T23:40:01.946Z,34.15
2023-05-22T23:45:05.235Z,32.47
2023-05-22T23:50:08.917Z,31.25
2023-05-22T23:55:13.169Z,31.35
